Time;durP1;ratioP1;P1;durP2;ratioP2;P2;SDS_P1;SDS_P2;PMS_P1;PMS_P2;Temp;Humidity;BMP_temperature;BMP_pressure;BME280_temperature;BME280_humidity;BME280_pressure;Samples;Min_cycle;Max_cycle;Signal;HPM_P1;HPM_P2
2021/08/18 00:00:50;;;;;;;9.32;7.03;;;;;;;23.31;67.43;100650.09;4949519;28;103150;-47
2021/08/18 00:03:17;;;;;;;7.63;6.75;;;;;;;23.32;66.90;100650.91;4956223;28;102550;-45
2021/08/18 00:05:44;;;;;;;9.65;7.07;;;;;;;23.31;67.08;100660.41;4952264;28;102205;-46
2021/08/18 00:08:14;;;;;;;8.88;6.90;;;;;;;23.31;67.35;100660.41;4948440;28;102869;-45
2021/08/18 00:10:42;;;;;;;8.57;7.35;;;;;;;23.31;67.57;100654.84;4948990;28;104292;-45
2021/08/18 00:13:11;;;;;;;8.68;7.13;;;;;;;23.31;67.34;100654.84;4942126;28;102065;-48
2021/08/18 00:15:38;;;;;;;9.38;7.28;;;;;;;23.30;67.04;100656.84;4948626;28;102680;-48
2021/08/18 00:18:05;;;;;;;7.90;7.10;;;;;;;23.29;67.38;100651.63;4948064;28;102496;-47
2021/08/18 00:20:34;;;;;;;7.88;7.03;;;;;;;23.31;67.59;100663.19;4946864;28;102774;-46
2021/08/18 00:23:01;;;;;;;8.07;7.05;;;;;;;23.30;67.06;100664.31;4943708;28;102492;-47
2021/08/18 00:25:30;;;;;;;8.48;7.57;;;;;;;23.30;67.30;100664.31;4947869;28;102397;-45
2021/08/18 00:27:56;;;;;;;9.77;6.97;;;;;;;23.29;67.29;100655.19;4949960;28;102740;-48
2021/08/18 00:30:23;;;;;;;7.82;6.78;;;;;;;23.30;67.42;100665.16;4948295;28;104466;-46
2021/08/18 00:32:50;;;;;;;8.00;7.13;;;;;;;23.30;67.34;100662.38;4947321;28;102574;-46
2021/08/18 00:35:16;;;;;;;8.20;6.65;;;;;;;23.30;67.71;100667.09;4942686;28;103326;-45
2021/08/18 00:37:43;;;;;;;9.35;7.13;;;;;;;23.30;67.39;100667.09;4949528;28;102556;-49
2021/08/18 00:40:11;;;;;;;8.32;6.82;;;;;;;23.30;67.38;100675.44;4939249;28;102772;-47
2021/08/18 00:42:39;;;;;;;10.57;7.43;;;;;;;23.29;67.46;100668.28;4951676;28;102673;-48
2021/08/18 00:45:06;;;;;;;;;;;;;;;23.30;67.36;100675.44;4937218;28;102178;-49
2021/08/18 00:47:39;;;;;;;11.25;7.60;;;;;;;23.29;67.59;100682.16;4941472;28;102675;-46
2021/08/18 00:50:07;;;;;;;13.25;8.68;;;;;;;23.29;67.49;100679.38;4948083;28;103890;-47
2021/08/18 00:52:42;;;;;;;9.60;7.40;;;;;;;23.29;67.46;100680.19;4947655;28;103154;-48
2021/08/18 00:55:10;;;;;;;10.27;7.47;;;;;;;23.29;67.28;100679.38;4947308;28;102133;-47
2021/08/18 00:57:37;;;;;;;;;;;;;;;23.29;67.55;100685.75;4941482;28;102140;-49
2021/08/18 01:00:06;;;;;;;12.48;7.50;;;;;;;23.29;67.52;100687.72;4946942;28;103823;-49
2021/08/18 01:02:36;;;;;;;9.07;7.22;;;;;;;23.29;67.23;100693.25;4958978;28;102401;-48
2021/08/18 01:05:07;;;;;;;9.45;7.50;;;;;;;23.28;67.51;100686.91;4947361;28;102727;-49
2021/08/18 01:07:34;;;;;;;10.00;7.75;;;;;;;23.29;67.40;100690.50;4948469;28;102402;-48
2021/08/18 01:10:03;;;;;;;9.07;7.72;;;;;;;23.27;67.71;100683.34;4945045;28;103716;-46
2021/08/18 01:12:44;;;;;;;14.40;7.50;;;;;;;23.29;67.41;100690.50;4949387;28;102078;-48
2021/08/18 01:15:15;;;;;;;9.75;7.38;;;;;;;23.27;67.48;100686.13;4946138;28;103118;-45
2021/08/18 01:17:46;;;;;;;10.32;7.45;;;;;;;23.27;67.61;100688.09;4948716;28;102604;-46
2021/08/18 01:20:16;;;;;;;10.10;7.60;;;;;;;23.26;67.43;100690.06;4948319;28;104122;-47
2021/08/18 01:22:44;;;;;;;14.35;7.40;;;;;;;23.26;67.53;100690.06;4939270;28;102520;-46
2021/08/18 01:25:12;;;;;;;9.07;7.55;;;;;;;23.28;67.33;100689.69;4948145;28;102487;-46
2021/08/18 01:27:46;;;;;;;9.18;7.40;;;;;;;23.26;67.52;100687.28;4942341;28;102539;-45
2021/08/18 01:30:16;;;;;;;15.70;8.30;;;;;;;23.26;67.48;100692.84;4947390;28;103458;-46
2021/08/18 01:32:44;;;;;;;32.28;8.95;;;;;;;23.27;67.56;100693.63;4945919;28;102277;-46
2021/08/18 01:35:21;;;;;;;;;;;;;;;23.26;67.47;100692.84;4946153;28;102335;-45
2021/08/18 01:37:48;;;;;;;;;;;;;;;23.26;67.72;100698.38;4946797;28;102187;-46
2021/08/18 01:40:14;;;;;;;;;;;;;;;23.26;67.58;100698.38;4949242;28;105057;-47
2021/08/18 01:42:41;;;;;;;;;;;;;;;23.26;67.61;100701.16;4948748;28;102363;-48
2021/08/18 01:45:08;;;;;;;;;;;;;;;23.26;67.68;100703.94;4946073;28;102313;-48
2021/08/18 01:47:37;;;;;;;;;;;;;;;23.26;67.38;100712.28;4947443;28;102185;-46
2021/08/18 01:50:09;;;;;;;;;;;;;;;23.25;67.58;100707.88;4944495;28;103790;-46
2021/08/18 01:52:36;;;;;;;;;;;;;;;23.26;67.61;100715.06;4948073;28;102723;-48
2021/08/18 01:55:03;;;;;;;;;;;;;;;23.26;67.49;100719.78;4955037;28;102868;-49
2021/08/18 01:57:30;;;;;;;;;;;;;;;23.26;67.57;100709.50;4950524;28;102488;-47
2021/08/18 01:59:56;;;;;;;;;;;;;;;23.25;67.60;100710.63;4952059;28;103904;-48
2021/08/18 02:02:26;;;;;;;;;;;;;;;23.25;67.72;100713.41;4946651;28;102589;-46
2021/08/18 02:04:53;;;;;;;;;;;;;;;23.24;67.63;100716.56;4946684;28;102409;-47
2021/08/18 02:07:20;;;;;;;;;;;;;;;23.23;67.59;100712.97;4948001;28;103065;-48
2021/08/18 02:09:46;;;;;;;;;;;;;;;23.24;67.55;100714.59;4948604;28;103793;-46
2021/08/18 02:12:14;;;;;;;;;;;;;;;23.24;67.69;100717.38;4947043;28;102803;-46
2021/08/18 02:14:45;;;;;;;;;;;;;;;23.24;67.44;100717.38;4948710;28;102666;-45
2021/08/18 02:17:12;;;;;;;;;;;;;;;23.24;67.76;100711.81;4948802;28;102320;-47
2021/08/18 02:19:38;;;;;;;;;;;;;;;23.24;67.80;100705.44;4939153;28;104161;-46
2021/08/18 02:22:09;;;;;;;;;;;;;;;23.24;67.67;100706.25;4948336;28;102254;-46
2021/08/18 02:24:36;;;;;;;;;;;;;;;23.24;67.83;100706.25;4941133;28;102773;-46
2021/08/18 02:27:03;;;;;;;;;;;;;;;23.24;67.68;100711.00;4947542;28;102287;-45
2021/08/18 02:29:29;;;;;;;;;;;;;;;23.24;67.48;100709.03;4947347;28;103965;-48
2021/08/18 02:31:56;;;;;;;;;;;;;;;23.24;67.67;100705.44;4961637;28;102645;-48
2021/08/18 02:34:22;;;;;;;;;;;;;;;23.24;67.88;100709.03;4948465;28;102590;-46
2021/08/18 02:36:48;;;;;;;;;;;;;;;23.24;67.79;100706.25;4946247;28;102755;-46
2021/08/18 02:39:16;;;;;;;;;;;;;;;23.24;67.91;100699.91;4944091;28;103833;-47
2021/08/18 02:41:42;;;;;;;;;;;;;;;23.22;67.78;100696.66;4947365;28;102669;-47
2021/08/18 02:44:09;;;;;;;;;;;;;;;23.22;67.71;100694.72;4949495;28;102439;-49
2021/08/18 02:46:36;;;;;;;;;;;;;;;23.22;67.75;100691.09;4943966;28;102609;-46
2021/08/18 02:49:02;;;;;;;;;;;;;;;23.23;67.88;100693.53;4946252;28;104786;-46
2021/08/18 02:51:28;;;;;;;;;;;;;;;23.22;67.63;100685.56;4947671;28;102469;-46
2021/08/18 02:53:55;;;;;;;;;;;;;;;23.22;67.69;100680.00;4943775;28;102553;-46
2021/08/18 02:56:22;;;;;;;;;;;;;;;23.22;67.52;100685.56;4945629;28;102512;-48
2021/08/18 02:58:50;;;;;;;;;;;;;;;23.23;67.49;100681.63;4941291;28;103167;-45
2021/08/18 03:01:16;;;;;;;;;;;;;;;23.21;67.61;100679.22;4943980;28;102513;-48
2021/08/18 03:03:43;;;;;;;;;;;;;;;23.22;67.62;100686.38;4948953;28;102485;-48
2021/08/18 03:06:10;;;;;;;;;;;;;;;23.22;67.55;100680.00;4956954;28;103488;-49
2021/08/18 03:08:36;;;;;;;;;;;;;;;23.21;67.64;100690.31;4959779;28;104212;-48
2021/08/18 03:11:04;;;;;;;;;;;;;;;23.21;67.72;100684.75;4960609;28;102734;-48
2021/08/18 03:13:31;;;;;;;;;;;;;;;23.23;67.40;100681.63;4959120;28;102215;-49
2021/08/18 03:15:58;;;;;;;;;;;;;;;23.21;67.70;100684.75;4968431;28;102385;-49
2021/08/18 03:18:24;;;;;;;;;;;;;;;23.22;67.61;100691.09;4949491;28;104115;-46
2021/08/18 03:20:51;;;;;;;;;;;;;;;23.21;67.78;100678.41;4951203;28;102489;-46
2021/08/18 03:23:17;;;;;;;;;;;;;;;23.21;67.54;100678.41;4947835;28;102412;-46
2021/08/18 03:25:44;;;;;;;;;;;;;;;23.20;67.86;100691.47;4950271;28;103249;-45
2021/08/18 03:28:10;;;;;;;;;;;;;;;23.20;67.58;100685.94;4950099;28;103880;-46
2021/08/18 03:30:39;;;;;;;;;;;;;;;23.21;67.72;100686.72;4949970;28;102161;-49
2021/08/18 03:33:05;;;;;;;;;;;;;;;23.21;67.58;100689.50;4948496;28;102390;-46
2021/08/18 03:35:32;;;;;;;;;;;;;;;23.18;67.59;100688.25;4944704;28;102168;-46
2021/08/18 03:37:59;;;;;;;;;;;;;;;23.20;67.62;100682.34;4945295;28;104082;-47
2021/08/18 03:40:25;;;;;;;;;;;;;;;23.20;67.84;100688.69;4948023;28;102344;-46
2021/08/18 03:42:51;;;;;;;;;;;;;;;23.20;67.61;100697.03;4946714;28;102499;-47
2021/08/18 03:45:18;;;;;;;;;;;;;;;23.20;67.77;100693.47;4947300;28;102819;-48
2021/08/18 03:47:45;;;;;;;;;;;;;;;23.19;67.85;100686.31;4962535;28;104068;-51
2021/08/18 03:50:12;;;;;;;;;;;;;;;23.19;67.87;100684.31;4950275;28;102727;-49
2021/08/18 03:52:39;;;;;;;;;;;;;;;23.19;67.90;100687.09;4959261;28;102433;-48
2021/08/18 03:55:08;;;;;;;;;;;;;;;23.20;67.53;100683.16;4952056;28;103843;-46
2021/08/18 03:57:34;;;;;;;;;;;;;;;23.19;67.77;100681.53;4950756;28;102599;-46
2021/08/18 04:00:00;;;;;;;;;;;;;;;23.19;67.62;100676.00;4948589;28;102074;-45
2021/08/18 04:02:27;;;;;;;;;;;;;;;23.20;67.90;100674.81;4947399;28;102089;-47
2021/08/18 04:04:54;;;;;;;;;;;;;;;23.19;68.00;100681.53;4953496;28;102528;-45
2021/08/18 04:07:21;;;;;;;;;;;;;;;23.19;67.91;100673.22;4944948;28;103871;-47
2021/08/18 04:09:47;;;;;;;;;;;;;;;23.19;67.79;100670.44;4953499;28;102324;-48
2021/08/18 04:12:14;;;;;;;;;;;;;;;23.19;68.00;100659.34;4951145;28;102194;-50
2021/08/18 04:14:40;;;;;;;;;;;;;;;23.19;68.17;100659.34;4949672;28;102548;-46
2021/08/18 04:17:06;;;;;;;;;;;;;;;23.20;68.11;100658.16;4946660;28;103534;-47
2021/08/18 04:19:36;;;;;;;;;;;;;;;23.19;68.18;100664.91;4951229;28;102560;-46
2021/08/18 04:22:04;;;;;;;;;;;;;;;23.20;68.44;100665.69;4949607;28;102478;-47
2021/08/18 04:24:42;;;;;;;;;;;;;;;23.21;68.22;100657.00;4948091;28;102510;-46
2021/08/18 04:27:08;;;;;;;;;;;;;;;23.20;68.38;100649.84;4950911;28;104011;-46
2021/08/18 04:29:35;;;;;;;;;;;;;;;23.21;68.51;100651.44;4955394;28;102860;-48
2021/08/18 04:32:01;;;;;;;;;;;;;;;23.21;68.42;100645.88;4949530;28;102241;-48
2021/08/18 04:34:27;;;;;;;;;;;;;;;23.22;68.54;100646.69;4946597;28;102642;-46
2021/08/18 04:36:55;;;;;;;;;;;;;;;23.23;68.64;100643.56;4947872;28;104018;-46
2021/08/18 04:39:23;;;;;;;;;;;;;;;23.23;68.49;100643.56;4950129;28;102942;-45
2021/08/18 04:41:49;;;;;;;;;;;;;;;23.22;68.75;100641.97;4951318;28;102454;-46
2021/08/18 04:44:15;;;;;;;;;;;;;;;23.23;68.85;100643.56;4950463;28;102325;-48
2021/08/18 04:46:42;;;;;;;;;;;;;;;23.22;68.71;100638.38;4951091;28;103972;-47
2021/08/18 04:49:08;;;;;;;;;;;;;;;23.23;68.84;100649.13;4951140;28;102234;-49
2021/08/18 04:51:39;;;;;;;;;;;;;;;23.24;68.77;100649.94;4948569;28;102679;-48
2021/08/18 04:54:06;;;;;;;;;;;;;;;23.24;68.94;100656.28;4948643;28;102896;-47
2021/08/18 04:56:34;;;;;;;;;;;;;;;23.24;68.94;100656.28;4949121;28;103520;-48
2021/08/18 04:59:01;;;;;;;;;;;;;;;23.24;69.10;100664.59;4949032;28;102577;-46
2021/08/18 05:01:28;;;;;;;;;;;;;;;23.25;68.99;100663.44;4943236;28;102451;-48
2021/08/18 05:03:54;;;;;;;;;;;;;;;23.25;69.11;100666.22;4948940;28;102265;-48
2021/08/18 05:06:20;;;;;;;;;;;;;;;23.27;68.98;100660.31;4945008;28;104770;-48
2021/08/18 05:08:46;;;;;;;;;;;;;;;23.26;69.02;100659.53;4950903;28;102643;-46
2021/08/18 05:11:13;;;;;;;;;;;;;;;23.26;68.99;100665.06;4945553;28;102842;-46
2021/08/18 05:13:40;;;;;;;;;;;;;;;23.27;69.15;100663.09;4949078;28;102400;-45
2021/08/18 05:16:13;;;;;;;;;;;;;;;23.27;69.00;100660.31;4938751;28;104015;-46
2021/08/18 05:18:41;;;;;;;;;;;;;;;23.27;69.10;100658.34;4958581;28;102280;-47
2021/08/18 05:21:11;;;;;;;;;;;;;;;23.27;69.04;100658.34;4946038;28;103290;-46
2021/08/18 05:23:57;;;;;;;;;;;;;;;23.29;69.38;100657.16;4942220;28;102669;-47
2021/08/18 05:26:23;;;;;;;;;;;;;;;23.29;69.11;100651.63;4939883;28;103641;-46
2021/08/18 05:28:51;;;;;;;;;;;;;;;23.30;69.03;100651.28;4941175;28;103300;-45
2021/08/18 05:31:17;;;;;;;;;;;;;;;23.30;69.10;100650.44;4936960;28;103356;-48
2021/08/18 05:33:44;;;;;;;;;;;;;;;23.31;68.97;100652.06;4945696;28;102750;-45
2021/08/18 05:36:10;;;;;;;;;;;;;;;23.31;69.03;100650.09;4941462;28;103971;-46
2021/08/18 05:38:37;;;;;;;;;;;;;;;23.32;69.23;100657.25;4947191;28;102537;-46
2021/08/18 05:41:04;;;;;;;;;;;;;;;23.33;69.14;100652.50;4948017;28;102669;-48
2021/08/18 05:43:30;;;;;;;;;;;;;;;23.33;69.13;100652.50;4950274;28;103749;-45
2021/08/18 05:45:58;;;;;;;;;;;;;;;23.34;69.00;100654.13;4943118;28;103878;-49
2021/08/18 05:48:24;;;;;;;;;;;;;;;23.35;68.99;100647.41;4945016;28;103353;-49
2021/08/18 05:50:51;;;;;;;;;;;;;;;23.36;68.99;100640.69;4949059;28;102469;-46
2021/08/18 05:53:19;;;;;;;;;;;;;;;23.37;69.09;100633.97;4947676;28;102357;-48
2021/08/18 05:55:47;;;;;;;;;;;;;;;23.37;68.76;100626.47;4948323;28;102708;-47
2021/08/18 05:58:13;;;;;;;;;;;;;;;23.39;68.82;100629.66;4941370;28;102493;-47
2021/08/18 06:00:39;;;;;;;;;;;;;;;23.39;68.82;100624.09;4944987;28;102546;-46
2021/08/18 06:03:07;;;;;;;;;;;;;;;23.41;68.69;100627.34;4945454;28;102658;-46
2021/08/18 06:05:34;;;;;;;;;;;;;;;23.42;68.91;100633.69;4944808;28;103767;-45
2021/08/18 06:08:01;;;;;;;;;;;;;;;23.43;68.71;100625.00;4948561;28;102587;-47
2021/08/18 06:10:27;;;;;;;;;;;;;;;23.44;68.87;100626.63;4944518;28;102653;-48
2021/08/18 06:12:54;;;;;;;;;;;;;;;23.45;68.71;100628.22;4938338;28;102586;-45
2021/08/18 06:15:20;;;;;;;;;;;;;;;23.47;68.99;100625.06;4941283;28;103753;-49
2021/08/18 06:17:47;;;;;;;;;;;;;;;23.48;68.76;100621.16;4944793;28;102403;-45
2021/08/18 06:20:20;;;;;;;;;;;;;;;23.49;68.82;100611.66;4948850;28;102070;-45
2021/08/18 06:22:47;;;;;;;;;;;;;;;23.51;68.43;100614.84;4949461;28;102367;-47
2021/08/18 06:25:14;;;;;;;;;;;;;;;23.52;68.59;100613.72;4947618;28;103908;-47
2021/08/18 06:27:40;;;;;;;;;;;;;;;23.51;68.85;100603.75;4943004;28;102314;-48
2021/08/18 06:30:07;;;;;;;;;;;;;;;23.54;68.63;100597.47;4944912;28;103054;-49
2021/08/18 06:32:34;;;;;;;;;;;;;;;23.56;68.41;100605.47;4944852;28;102360;-48
2021/08/18 06:35:00;;;;;;;;;;;;;;;23.56;68.57;100595.16;4942398;28;103866;-49
2021/08/18 06:37:27;;;;;;;;;;;;;;;23.57;68.68;100596.75;4946284;28;102863;-47
2021/08/18 06:39:54;;;;;;;;;;;;;;;23.58;68.64;100598.34;4943198;28;102532;-46
2021/08/18 06:42:21;;;;;;;;;;;;;;;23.59;68.73;100594.44;4945305;28;102612;-48
2021/08/18 06:44:50;;;;;;;;;;;;;;;23.60;68.56;100593.25;4944242;28;104150;-46
2021/08/18 06:47:17;;;;;;;;;;;;;;;23.62;68.52;100593.69;4943013;28;102076;-47
2021/08/18 06:49:44;;;;;;;;;;;;;;;23.63;68.35;100591.72;4944856;28;102681;-48
2021/08/18 06:52:11;;;;;;;;;;;;;;;23.64;68.69;100591.34;4946840;28;102235;-47
2021/08/18 06:54:39;;;;;;;;;;;;;;;23.65;68.50;100601.28;4948436;28;103906;-46
2021/08/18 06:57:05;;;;;;;;;;;;;;;23.67;68.48;100604.56;4940919;28;102352;-47
2021/08/18 06:59:31;;;;;;;;;;;;;;;23.67;68.50;100601.78;4945491;28;102748;-46
2021/08/18 07:01:58;;;;;;;;;;;;;;;23.67;68.44;100601.78;4947159;28;102502;-49
2021/08/18 07:04:25;;;;;;;;;;;;;;;23.69;68.24;100604.19;4947047;28;104231;-48
2021/08/18 07:06:52;;;;;;;;;;;;;;;23.70;68.34;100601.06;4946626;28;102616;-48
2021/08/18 07:09:18;;;;;;;;;;;;;;;23.70;68.40;100595.50;4947397;28;102663;-46
2021/08/18 07:11:46;;;;;;;;;;;;;;;23.72;68.34;100592.34;4945843;28;102168;-48
2021/08/18 07:14:12;;;;;;;;;;;;;;;23.73;68.48;100588.41;4944356;28;104532;-46
2021/08/18 07:16:39;;;;;;;;;;;;;;;23.73;68.43;100583.66;4942014;28;102194;-48
2021/08/18 07:19:08;;;;;;;;;;;;;;;23.75;68.27;100580.50;4936627;28;102714;-46
2021/08/18 07:21:34;;;;;;;;;;;;;;;23.77;68.28;100571.81;4941186;28;102914;-47
2021/08/18 07:24:01;;;;;;;;;;;;;;;23.77;68.16;100572.63;4943109;28;104124;-46
2021/08/18 07:26:30;;;;;;;;;;;;;;;23.77;68.24;100571.81;4943257;28;102831;-47
2021/08/18 07:28:58;;;;;;;;;;;;;;;23.78;68.17;100568.66;4942099;28;103470;-46
2021/08/18 07:31:25;;;;;;;;;;;;;;;23.78;68.23;100568.66;4948437;28;102510;-49
2021/08/18 07:33:51;;;;;;;;;;;;;;;23.80;68.11;100569.13;4950212;28;103937;-47
2021/08/18 07:36:18;;;;;;;;;;;;;;;23.81;67.88;100567.13;4943705;28;102880;-46
2021/08/18 07:38:44;;;;;;;;;;;;;;;23.82;68.06;100568.75;4945707;28;102334;-47
2021/08/18 07:41:10;;;;;;;;;;;;;;;23.82;68.10;100565.97;4946499;28;102311;-45
2021/08/18 07:43:37;;;;;;;;;;;;;;;23.83;68.13;100573.13;4949652;28;104264;-46
2021/08/18 07:46:05;;;;;;;;;;;;;;;23.84;67.85;100571.94;4944243;28;102688;-47
2021/08/18 07:48:32;;;;;;;;;;;;;;;23.84;68.08;100572.78;4947915;28;102356;-49
2021/08/18 07:50:58;;;;;;;;;;;;;;;23.86;67.94;100580.72;4950382;28;105470;-48
2021/08/18 07:53:25;;;;;;;;;;;;;;;23.86;67.93;100580.72;4942866;28;104174;-49
2021/08/18 07:55:51;;;;;;;;;;;;;;;23.86;67.87;100586.28;4949996;28;102481;-49
2021/08/18 07:58:18;;;;;;;;;;;;;;;23.87;67.85;100582.34;4947701;28;102675;-48
2021/08/18 08:00:44;;;;;;;;;;;;;;;23.87;68.11;100593.44;4950575;28;103735;-51
2021/08/18 08:03:12;;;;;;;;;;;;;;;23.89;67.93;100593.91;4949518;28;104132;-49
2021/08/18 08:05:38;;;;;;;;;;;;;;;23.89;67.90;100591.94;4951705;28;101820;-48
2021/08/18 08:08:04;;;;;;;;;;;;;;;23.90;67.94;100589.94;4963392;28;102560;-48
2021/08/18 08:10:30;;;;;;;;;;;;;;;23.91;68.06;100583.22;4961287;28;102050;-47
2021/08/18 08:12:57;;;;;;;;;;;;;;;23.92;67.88;100595.97;4961094;28;103175;-48
2021/08/18 08:15:23;;;;;;;;;;;;;;;23.92;67.87;100584.84;4953173;28;102232;-48
2021/08/18 08:17:51;;;;;;;;;;;;;;;23.92;67.89;100587.63;4948011;28;103775;-48
2021/08/18 08:20:19;;;;;;;;;;;;;;;23.93;67.89;100583.66;4950724;28;102672;-47
2021/08/18 08:22:45;;;;;;;;;;;;;;;23.92;67.93;100577.31;4953929;28;103911;-47
2021/08/18 08:25:11;;;;;;;;;;;;;;;23.94;67.95;100583.28;4953377;28;102415;-48
2021/08/18 08:27:37;;;;;;;;;;;;;;;23.95;67.89;100567.44;4950567;28;102542;-46
2021/08/18 08:30:04;;;;;;;;;;;;;;;23.95;68.00;100565.47;4946503;28;104295;-49
2021/08/18 08:32:34;;;;;;;;;;;;;;;23.96;67.92;100569.03;4946074;28;103679;-46
2021/08/18 08:35:00;;;;;;;;;;;;;;;23.98;67.77;100566.69;4947329;28;102908;-48
2021/08/18 08:37:28;;;;;;;;;;;;;;;23.97;67.90;100565.88;4944731;28;102852;-48
2021/08/18 08:39:55;;;;;;;;;;;;;;;23.97;67.94;100568.66;4944414;28;102869;-47
2021/08/18 08:42:22;;;;;;;;;;;;;;;23.98;67.94;100566.69;4948162;28;103916;-46
2021/08/18 08:44:49;;;;;;;;;;;;;;;24.00;67.88;100566.34;4951291;28;102543;-47
2021/08/18 08:47:18;;;;;;;;;;;;;;;24.00;67.63;100558.00;4944655;28;102618;-48
2021/08/18 08:49:44;;;;;;;;;;;;;;;23.99;67.70;100562.75;4947977;28;102635;-49
2021/08/18 08:52:12;;;;;;;;;;;;;;;23.99;67.93;100562.75;4946356;28;103840;-47
2021/08/18 08:54:42;;;;;;;;;;;;;;;24.00;67.95;100553.22;4937851;28;102484;-46
2021/08/18 08:57:08;;;;;;;;;;;;;;;24.01;67.96;100560.41;4942538;28;102351;-46
2021/08/18 08:59:35;;;;;;;;;;;;;;;24.01;67.69;100554.03;4945701;28;102599;-49
2021/08/18 09:02:03;;;;;;;;;;;;;;;24.02;67.71;100550.06;4943555;28;104197;-45
2021/08/18 09:04:30;;;;;;;;;;;;;;;24.01;67.92;100549.28;4947328;28;102163;-47
2021/08/18 09:07:03;;;;;;;;;;;;;;;24.02;67.90;100552.84;4944408;28;102583;-45
2021/08/18 09:09:30;;;;;;;;;;;;;;;24.02;67.82;100548.13;4948885;28;102550;-46
2021/08/18 09:12:02;;;;;;;;;;;;;;;24.03;67.81;100546.94;4946342;28;104196;-49
2021/08/18 09:14:29;;;;;;;;;;;;;;;24.03;67.68;100544.16;4949375;28;102478;-46
2021/08/18 09:17:02;;;;;;;;;;;;;;;24.03;67.85;100535.81;4946699;28;102122;-49
2021/08/18 09:19:29;;;;;;;;;;;;;;;24.04;67.97;100544.97;4946889;28;102279;-50
2021/08/18 09:22:03;;;;;;;;;;;;;;;24.03;67.60;100535.03;4946037;28;104000;-48
2021/08/18 09:24:30;;;;;;;;;;;;;;;24.03;67.71;100538.59;4949963;28;102527;-49
2021/08/18 09:26:57;;;;;;;;;;;;;;;24.04;67.82;100531.88;4945107;28;101974;-46
2021/08/18 09:29:35;;;;;;;;;;;;;;;24.03;67.81;100530.28;4941452;28;102365;-48
2021/08/18 09:32:19;;;;;;;;;;;;;;;24.03;67.77;100530.28;4945551;28;102824;-49
2021/08/18 09:34:52;;;;;;;;;;;;;;;24.04;67.51;100523.53;4951011;28;102477;-48
2021/08/18 09:37:19;;;;;;;;;;;;;;;24.04;67.79;100528.28;4948024;28;102194;-47
2021/08/18 09:39:45;;;;;;;;;;;;;;;24.04;67.70;100522.72;4950968;28;102396;-47
2021/08/18 09:42:25;;;;;;;;;;;;;;;24.04;67.63;100523.53;4943355;28;103940;-46
2021/08/18 09:45:06;;;;;;;;;;;;;;;24.03;67.71;100524.72;4945133;28;102427;-45
2021/08/18 09:47:32;;;;;;;;;;;;;;;24.03;67.72;100519.16;4946196;28;103908;-45
2021/08/18 09:49:59;;;;;;;;;;;;;;;24.04;67.78;100519.94;4947293;28;102391;-47
2021/08/18 09:52:25;;;;;;;;;;;;;;;24.04;67.79;100515.19;4945839;28;104045;-47
2021/08/18 09:54:52;;;;;;;;;;;;;;;24.04;67.74;100517.97;4948365;28;102166;-45
2021/08/18 09:57:28;;;;;;;;;;;;;;;24.04;67.92;100515.19;4949380;28;102122;-48
2021/08/18 09:59:56;;;;;;;;;;;;;;;24.03;67.63;100513.59;4947047;28;102742;-46
2021/08/18 10:02:25;;;;;;;;;;;;;;;24.04;67.72;100515.19;4946428;28;102844;-48
2021/08/18 10:04:51;;;;;;;;;;;;;;;24.04;67.77;100514.38;4943365;28;102660;-46
2021/08/18 10:07:19;;;;;;;;;;;;;;;24.03;67.83;100502.47;4946447;28;102113;-46
2021/08/18 10:09:46;;;;;;;;;;;;;;;24.03;67.48;100507.22;4959579;28;102314;-48
2021/08/18 10:12:12;;;;;;;;;;;;;;;24.03;67.93;100507.22;4945047;28;102598;-49
2021/08/18 10:14:41;;;;;;;;;;;;;;;24.03;67.79;100508.03;4948029;28;102313;-46
2021/08/18 10:17:07;;;;;;;;;;;;;;;24.03;67.77;100516.38;4943154;28;102245;-46
2021/08/18 10:19:35;;;;;;;;;;;;;;;24.02;67.58;100512.00;4946674;28;102264;-45
2021/08/18 10:22:01;;;;;;;;;;;;;;;24.03;67.65;100512.78;4941450;28;103335;-47
2021/08/18 10:24:28;;;;;;;;;;;;;;;24.02;67.53;100506.44;4946670;28;102233;-49
2021/08/18 10:26:55;;;;;;;;;;;;;;;24.02;67.63;100505.59;4940103;28;102407;-45
2021/08/18 10:29:31;;;;;;;;;;;;;;;24.02;67.65;100517.56;4946658;28;102314;-46
2021/08/18 10:32:05;;;;;;;;;;;;;;;24.03;67.71;100508.03;4935672;28;104086;-45
2021/08/18 10:34:32;;;;;;;;;;;;;;;24.02;67.77;100517.56;4942207;28;102649;-47
2021/08/18 10:37:01;;;;;;;;;;;;;;;24.02;67.54;100506.44;4942826;28;102992;-46
2021/08/18 10:39:36;;;;;;;;;;;;;;;24.02;67.50;100505.59;4940307;28;102891;-46
2021/08/18 10:42:04;;;;;;;;;;;;;;;24.02;67.63;100514.78;4945116;28;103731;-47
2021/08/18 10:44:37;;;;;;;;;;;;;;;24.01;67.64;100515.91;4946209;28;102411;-46
2021/08/18 10:47:14;;;;;;;;;;;;;;;24.01;67.62;100515.91;4946186;28;102700;-48
2021/08/18 10:49:40;;;;;;;;;;;;;;;24.00;67.82;100503.19;4941035;28;102426;-46
2021/08/18 10:52:32;;;;;;;;;;;;;;;24.01;67.67;100510.34;4940973;28;103796;-47
2021/08/18 10:55:04;;;;;;;;;;;;;;;24.00;67.82;100500.41;4944065;28;102869;-48
2021/08/18 10:57:38;;;;;;;;;;;;;;;24.00;67.73;100503.19;4945143;28;102688;-48
2021/08/18 11:00:10;;;;;;;;;;;;;;;24.00;67.70;100496.84;4942515;28;103595;-46
2021/08/18 11:03:00;;;;;;;;;;;;;;;24.01;67.97;100501.22;4940077;28;104300;-48
2021/08/18 11:05:28;;;;;;;;;;;;;;;24.00;67.77;100499.63;4946746;28;102566;-47
2021/08/18 11:08:14;;;;;;;;;;;;;;;24.00;67.73;100496.84;4951914;28;102869;-45
2021/08/18 11:11:12;;;;;;;;;;;;;;;23.99;67.89;100487.69;4945938;28;103489;-45
2021/08/18 11:13:43;;;;;;;;;;;;;;;23.99;67.80;100496.03;4941121;28;105205;-45
2021/08/18 11:16:10;;;;;;;;;;;;;;;23.98;67.95;100486.91;4944833;28;102499;-46
2021/08/18 11:18:45;;;;;;;;;;;;;;;24.00;67.86;100485.72;4945658;28;102704;-47
2021/08/18 11:21:14;;;;;;;;;;;;;;;23.99;67.78;100490.47;4948633;28;102655;-46
2021/08/18 11:23:47;;;;;;;;;;;;;;;23.99;67.85;100482.16;4948265;28;104118;-45
2021/08/18 11:26:17;;;;;;;;;;;;;;;23.98;67.98;100477.75;4946949;28;103497;-49
2021/08/18 11:28:48;;;;;;;;;;;;;;;23.97;68.00;100476.94;4946326;28;103213;-46
2021/08/18 11:31:14;;;;;;;;;;;;;;;23.98;68.24;100483.28;4949891;28;102471;-47
2021/08/18 11:33:40;;;;;;;;;;;;;;;23.97;68.02;100476.13;4948994;28;103912;-46
2021/08/18 11:36:14;;;;;;;;;;;;;;;23.97;68.03;100474.16;4944500;28;103386;-46
2021/08/18 11:38:40;;;;;;;;;;;;;;;23.98;68.04;100483.28;4948724;28;102767;-47
2021/08/18 11:41:07;;;;;;;;;;;;;;;23.97;68.04;100482.50;4949468;28;105532;-46
2021/08/18 11:43:39;;;;;;;;;;;;;;;23.96;68.11;100482.88;4948180;28;104025;-47
2021/08/18 11:46:05;;;;;;;;;;;;;;;23.97;68.18;100473.34;4948134;28;104143;-46
2021/08/18 11:48:32;;;;;;;;;;;;;;;23.96;68.30;100480.91;4949501;28;102367;-47
2021/08/18 11:50:59;;;;;;;;;;;;;;;23.95;68.27;100472.94;4939901;28;102633;-48
2021/08/18 11:53:26;;;;;;;;;;;;;;;23.94;68.18;100472.09;4944379;28;104036;-47
2021/08/18 11:56:00;;;;;;;;;;;;;;;23.95;68.14;100478.50;4945181;28;103388;-49
2021/08/18 11:58:32;;;;;;;;;;;;;;;23.94;68.22;100471.31;4943738;28;102987;-46
2021/08/18 12:01:03;;;;;;;;;;;;;;;23.94;68.31;100466.56;4949068;28;103019;-46
2021/08/18 12:03:31;;;;;;;;;;;;;;;23.94;68.18;100465.75;4944838;28;103919;-48
2021/08/18 12:05:59;;;;;;;;;;;;;;;23.93;68.14;100475.28;4947514;28;103054;-46
2021/08/18 12:08:34;;;;;;;;;;;;;;;23.93;68.20;100470.50;4944405;28;102838;-46
2021/08/18 12:11:02;;;;;;;;;;;;;;;23.93;68.34;100462.16;4946087;28;102277;-47
2021/08/18 12:13:36;;;;;;;;;;;;;;;23.93;68.23;100466.94;4950007;28;104125;-45
2021/08/18 12:16:21;;;;;;;;;;;;;;;23.94;68.20;100454.63;4944812;28;102447;-47
2021/08/18 12:18:50;;;;;;;;;;;;;;;23.92;68.35;100462.56;4937658;28;102560;-45
2021/08/18 12:21:16;;;;;;;;;;;;;;;23.92;68.40;100457.00;4949934;28;102934;-45
2021/08/18 12:23:46;;;;;;;;;;;;;;;23.94;68.52;100454.63;4946594;28;104155;-46